createdAt,value
2022-08-05T00:02:50.381Z,22.90
2022-08-05T00:06:05.468Z,26.90
2022-08-05T00:09:50.776Z,23.17
2022-08-05T00:13:04.536Z,18.65
2022-08-05T00:16:08.705Z,20.98
2022-08-05T00:19:25.027Z,17.52
2022-08-05T00:22:36.284Z,15.15
2022-08-05T00:25:50.762Z,12.25
2022-08-05T00:29:37.863Z,14.90
2022-08-05T00:33:07.514Z,16.13
2022-08-05T00:37:10.545Z,15.00
2022-08-05T00:40:03.644Z,21.63
2022-08-05T00:46:43.417Z,15.20
2022-08-05T00:50:08.398Z,12.85
2022-08-05T00:54:00.868Z,14.00
2022-08-05T00:56:51.733Z,12.23
2022-08-05T01:00:05.198Z,12.13
2022-08-05T01:06:48.687Z,10.30
2022-08-05T01:09:56.733Z,7.90
2022-08-05T01:13:13.308Z,8.48
2022-08-05T01:16:44.471Z,7.07
2022-08-05T01:20:14.214Z,9.68
2022-08-05T01:23:39.768Z,9.77
2022-08-05T01:27:26.649Z,12.13
2022-08-05T01:30:53.570Z,9.65
2022-08-05T01:34:29.886Z,5.22
2022-08-05T01:37:44.281Z,14.57
2022-08-05T01:40:59.487Z,7.00
2022-08-05T01:44:19.275Z,5.32
2022-08-05T01:47:43.441Z,6.78
2022-08-05T01:51:14.279Z,5.78
2022-08-05T01:54:18.433Z,4.70
2022-08-05T01:58:29.306Z,9.70
2022-08-05T02:04:55.455Z,4.97
2022-08-05T02:08:05.662Z,7.95
2022-08-05T02:11:16.596Z,4.25
2022-08-05T02:14:44.020Z,7.07
2022-08-05T02:18:32.992Z,8.20
2022-08-05T02:21:38.023Z,3.33
2022-08-05T02:25:04.437Z,7.22
2022-08-05T02:28:29.149Z,7.15
2022-08-05T02:31:54.939Z,9.30
2022-08-05T02:35:19.157Z,8.07
2022-08-05T02:38:43.284Z,6.00
2022-08-05T02:42:00.698Z,8.77
2022-08-05T02:45:08.139Z,8.63
2022-08-05T02:48:18.736Z,8.90
2022-08-05T02:52:04.496Z,8.77
2022-08-05T02:55:12.294Z,13.02
2022-08-05T02:58:27.149Z,11.90
2022-08-05T03:01:38.934Z,11.80
2022-08-05T03:04:42.825Z,5.97
2022-08-05T03:08:04.501Z,12.20
2022-08-05T03:11:55.693Z,10.85
2022-08-05T03:14:48.377Z,11.02
2022-08-05T03:17:57.659Z,10.48
2022-08-05T03:21:04.518Z,13.07
2022-08-05T03:24:27.544Z,9.85
2022-08-05T03:27:58.892Z,12.35
2022-08-05T03:31:00.680Z,9.85
2022-08-05T03:34:06.440Z,12.30
2022-08-05T03:41:03.951Z,13.80
2022-08-05T03:47:30.580Z,11.00
2022-08-05T03:50:43.274Z,11.35
2022-08-05T03:55:50.631Z,10.70
2022-08-05T03:57:41.794Z,12.68
2022-08-05T04:00:51.579Z,12.25
2022-08-05T04:07:58.562Z,12.07
2022-08-05T04:11:10.691Z,11.60
2022-08-05T04:14:18.186Z,13.02
2022-08-05T04:17:55.625Z,13.63
2022-08-05T04:21:00.172Z,14.95
2022-08-05T04:24:19.613Z,12.48
2022-08-05T04:27:57.368Z,13.43
2022-08-05T04:31:01.712Z,14.90
2022-08-05T04:34:33.966Z,14.85
2022-08-05T04:37:42.259Z,13.32
2022-08-05T04:41:10.154Z,16.45
2022-08-05T04:44:10.883Z,24.00
2022-08-05T04:47:23.617Z,18.67
2022-08-05T04:50:34.671Z,12.48
2022-08-05T04:53:45.714Z,15.07
2022-08-05T04:56:48.661Z,18.27
2022-08-05T04:59:58.549Z,16.77
2022-08-05T05:03:03.141Z,11.40
2022-08-05T05:06:37.051Z,12.93
2022-08-05T05:09:38.190Z,13.00
2022-08-05T05:12:52.335Z,10.68
2022-08-05T05:15:59.318Z,20.33
2022-08-05T05:19:23.472Z,13.38
2022-08-05T05:22:33.005Z,17.35
2022-08-05T05:25:50.300Z,13.20
2022-08-05T05:28:54.024Z,17.25
2022-08-05T05:32:15.589Z,11.60
2022-08-05T06:00:34.083Z,12.30
2022-08-05T06:03:54.042Z,11.27
2022-08-05T06:07:04.968Z,9.05
2022-08-05T06:10:10.133Z,11.68
2022-08-05T06:13:21.006Z,12.30
2022-08-05T06:16:32.846Z,10.07
2022-08-05T06:19:57.080Z,12.38
2022-08-05T06:23:04.911Z,13.20
2022-08-05T06:26:24.971Z,11.57
2022-08-05T06:48:37.246Z,9.90
2022-08-05T06:51:29.068Z,10.70
2022-08-05T06:54:41.556Z,9.80
2022-08-05T08:52:05.770Z,9.15
2022-08-05T09:36:55.403Z,9.00
2022-08-05T09:53:54.681Z,5.95
2022-08-05T10:36:43.593Z,6.30
2022-08-05T10:53:17.568Z,8.77
2022-08-05T10:56:26.391Z,5.60
2022-08-05T11:00:03.062Z,7.05
2022-08-05T11:03:24.419Z,5.80
2022-08-05T11:06:47.321Z,6.93
2022-08-05T11:10:10.047Z,5.25
2022-08-05T11:13:12.297Z,4.22
2022-08-05T11:16:56.081Z,3.53
2022-08-05T11:20:16.926Z,4.13
2022-08-05T11:24:04.819Z,4.18
2022-08-05T11:27:51.154Z,5.90
2022-08-05T11:31:56.778Z,3.97
2022-08-05T11:35:09.836Z,4.18
2022-08-05T11:38:29.583Z,5.32
2022-08-05T11:42:01.232Z,3.78
2022-08-05T11:45:27.055Z,3.65
2022-08-05T11:48:39.124Z,6.97
2022-08-05T11:51:49.801Z,5.25
2022-08-05T11:55:07.056Z,7.45
2022-08-05T11:58:11.830Z,4.00
2022-08-05T12:01:21.839Z,3.55
2022-08-05T12:04:29.823Z,6.13
2022-08-05T12:08:03.275Z,8.80
2022-08-05T12:11:39.678Z,5.47
2022-08-05T12:15:19.196Z,4.78
2022-08-05T12:20:26.026Z,8.30
2022-08-05T12:22:52.772Z,3.17
2022-08-05T12:26:13.953Z,6.35
2022-08-05T12:29:23.592Z,7.75
2022-08-05T12:32:32.872Z,6.93
2022-08-05T12:35:39.437Z,8.02
2022-08-05T12:38:54.105Z,4.43
2022-08-05T12:45:42.555Z,6.00
2022-08-05T12:48:53.935Z,5.38
2022-08-05T12:52:23.802Z,4.03
2022-08-05T12:55:41.590Z,5.70
2022-08-05T12:59:00.953Z,6.32
2022-08-05T13:02:35.348Z,4.20
2022-08-05T13:09:37.737Z,5.45
2022-08-05T15:18:38.669Z,5.22
2022-08-05T15:22:02.280Z,5.82
2022-08-05T15:25:53.292Z,7.82
2022-08-05T15:28:58.504Z,2.55
2022-08-05T15:40:59.707Z,8.13
2022-08-05T15:43:57.848Z,10.57
2022-08-05T15:47:04.619Z,6.60
2022-08-05T15:50:09.120Z,6.38
2022-08-05T15:53:20.191Z,5.78
2022-08-05T15:56:22.789Z,2.42
2022-08-05T16:07:53.581Z,2.80
2022-08-05T16:11:40.214Z,3.15
2022-08-05T16:19:09.838Z,1.75
2022-08-05T16:22:15.575Z,4.18
2022-08-05T16:25:26.841Z,4.72
2022-08-05T16:28:44.447Z,4.30
2022-08-05T16:34:51.127Z,4.45
2022-08-05T16:38:03.315Z,5.82
2022-08-05T17:58:02.979Z,2.15
2022-08-05T18:01:49.428Z,4.28
2022-08-05T18:04:55.072Z,3.20
2022-08-05T18:08:25.787Z,2.30
2022-08-05T18:11:36.032Z,3.72
2022-08-05T18:14:45.985Z,2.85
2022-08-05T18:20:56.453Z,1.45
2022-08-05T18:23:58.643Z,6.88
2022-08-05T18:27:05.646Z,3.25
2022-08-05T18:30:30.281Z,2.03
2022-08-05T18:33:59.060Z,2.08
2022-08-05T18:37:12.632Z,3.05
2022-08-05T18:41:52.775Z,1.83
2022-08-05T18:44:11.631Z,3.70
2022-08-05T18:47:22.609Z,1.67
2022-08-05T18:50:42.272Z,0.65
2022-08-05T18:57:52.756Z,1.17
2022-08-05T19:01:01.358Z,0.68
2022-08-05T19:04:12.253Z,1.27
2022-08-05T19:07:18.050Z,2.22
2022-08-05T19:10:27.960Z,2.60
2022-08-05T19:16:47.260Z,2.75
2022-08-05T19:19:59.544Z,0.70
2022-08-05T19:24:03.250Z,1.70
2022-08-05T19:26:31.931Z,1.83
2022-08-05T19:29:47.233Z,2.15
2022-08-05T19:32:51.725Z,1.35
2022-08-05T19:36:02.984Z,1.08
2022-08-05T19:39:07.775Z,1.80
2022-08-05T19:42:34.954Z,1.73
2022-08-05T21:20:53.801Z,2.65
2022-08-05T21:24:00.169Z,2.37
2022-08-05T21:27:14.064Z,2.55
2022-08-05T21:30:18.419Z,3.05
2022-08-05T21:33:39.900Z,5.95
2022-08-05T21:36:42.780Z,1.90
2022-08-05T21:39:53.708Z,3.03
2022-08-05T21:43:05.718Z,2.92
2022-08-05T21:46:11.749Z,3.08
2022-08-05T21:49:48.434Z,4.32
2022-08-05T21:53:08.318Z,2.40
2022-08-05T21:56:28.335Z,3.15
2022-08-05T21:59:48.038Z,3.08
2022-08-05T22:03:09.825Z,2.35
2022-08-05T22:06:14.343Z,2.25
2022-08-05T22:09:45.958Z,2.30
2022-08-05T22:12:53.211Z,7.43
2022-08-05T22:16:41.421Z,5.97
2022-08-05T22:20:01.660Z,3.67
2022-08-05T22:24:00.996Z,5.65
2022-08-05T22:27:17.245Z,4.88
2022-08-05T22:30:32.093Z,4.15
2022-08-05T22:33:55.818Z,2.47
2022-08-05T22:36:58.291Z,3.05
2022-08-05T22:40:07.662Z,5.78
2022-08-05T22:43:13.679Z,3.40
2022-08-05T22:46:23.447Z,3.40
2022-08-05T22:50:19.962Z,5.50
2022-08-05T22:53:02.794Z,5.05
2022-08-05T22:56:10.019Z,7.47
2022-08-05T22:59:46.265Z,2.83
2022-08-05T23:02:46.460Z,2.25
2022-08-05T23:05:54.818Z,3.90
2022-08-05T23:08:57.290Z,3.72
2022-08-05T23:12:25.246Z,4.50
2022-08-05T23:15:35.215Z,6.88
2022-08-05T23:18:42.847Z,4.57
2022-08-05T23:21:48.515Z,8.57
2022-08-05T23:24:55.778Z,8.25
2022-08-05T23:28:00.871Z,6.15
2022-08-05T23:31:17.013Z,5.25
2022-08-05T23:34:24.365Z,6.40
2022-08-05T23:37:36.474Z,4.57
2022-08-05T23:40:50.087Z,5.28
2022-08-05T23:44:06.199Z,6.13
2022-08-05T23:47:14.642Z,3.55
2022-08-05T23:50:26.520Z,8.02
2022-08-05T23:53:28.326Z,4.47
2022-08-05T23:56:52.968Z,3.28
